createdAt,value
2022-12-01T00:00:39.579Z,9.747458
2022-12-01T00:01:39.599Z,9.747463
2022-12-01T00:02:39.656Z,9.747493
2022-12-01T00:03:39.571Z,9.747372
2022-12-01T00:04:39.549Z,9.747353
2022-12-01T00:05:39.551Z,9.747360
2022-12-01T00:06:39.556Z,9.747515
2022-12-01T00:07:39.610Z,9.747548
2022-12-01T00:08:39.528Z,9.747423
2022-12-01T00:09:39.519Z,9.747307
2022-12-01T00:10:39.534Z,9.747285
2022-12-01T00:11:39.518Z,9.747350
2022-12-01T00:12:39.517Z,9.747298
2022-12-01T00:13:39.499Z,9.747345
2022-12-01T00:14:39.484Z,9.747318
2022-12-01T00:15:39.478Z,9.747329
2022-12-01T00:16:39.497Z,9.747390
2022-12-01T00:17:39.494Z,9.747404
2022-12-01T00:18:39.456Z,9.747536
2022-12-01T00:19:39.451Z,9.747303
2022-12-01T00:20:39.432Z,9.747351
2022-12-01T00:21:39.428Z,9.747355
2022-12-01T00:22:39.460Z,9.747397
2022-12-01T00:23:39.407Z,9.747233
2022-12-01T00:24:39.404Z,9.747233
2022-12-01T00:25:39.395Z,9.747173
2022-12-01T00:26:39.399Z,9.747328
2022-12-01T00:27:39.459Z,9.747145
2022-12-01T00:28:39.369Z,9.747383
2022-12-01T00:29:39.369Z,9.747211
2022-12-01T00:30:39.361Z,9.747468
2022-12-01T00:31:39.404Z,9.747451
2022-12-01T00:32:39.371Z,9.747326
2022-12-01T00:33:39.346Z,9.747246
2022-12-01T00:34:39.336Z,9.747192
2022-12-01T00:36:12.133Z,9.747042
2022-12-01T00:36:39.313Z,9.747398
2022-12-01T00:37:39.342Z,9.747446
2022-12-01T00:38:39.299Z,9.747350
2022-12-01T00:39:39.308Z,9.747291
2022-12-01T00:40:39.287Z,9.747329
2022-12-01T00:41:39.293Z,9.747411
2022-12-01T00:42:39.269Z,9.747324
2022-12-01T00:43:39.298Z,9.747318
2022-12-01T00:44:39.263Z,9.747108
2022-12-01T00:45:39.351Z,9.747284
2022-12-01T00:46:39.237Z,9.747300
2022-12-01T00:47:39.232Z,9.747464
2022-12-01T00:48:39.250Z,9.747298
2022-12-01T00:49:39.217Z,9.747337
2022-12-01T00:50:39.209Z,9.747384
2022-12-01T00:51:39.208Z,9.747271
2022-12-01T00:52:39.197Z,9.747385
2022-12-01T00:53:39.219Z,9.747443
2022-12-01T00:54:39.178Z,9.747398
2022-12-01T00:55:39.178Z,9.747432
2022-12-01T00:56:39.171Z,9.747332
2022-12-01T00:57:39.158Z,9.747270
2022-12-01T00:58:39.220Z,9.747569
2022-12-01T00:59:39.142Z,9.747404
2022-12-01T01:00:42.671Z,9.747373
2022-12-01T01:01:42.571Z,9.747517
2022-12-01T01:02:41.613Z,9.747442
2022-12-01T01:03:43.103Z,9.747326
2022-12-01T01:04:41.230Z,9.747314
2022-12-01T01:05:41.547Z,9.747361
2022-12-01T01:06:39.097Z,9.747492
2022-12-01T01:07:39.101Z,9.747259
2022-12-01T01:08:39.128Z,9.747360
2022-12-01T01:09:39.071Z,9.747317
2022-12-01T01:10:39.062Z,9.747255
2022-12-01T01:11:39.055Z,9.747317
2022-12-01T01:12:39.047Z,9.747264
2022-12-01T01:13:39.065Z,9.747469
2022-12-01T01:14:39.032Z,9.747385
2022-12-01T01:15:39.032Z,9.747348
2022-12-01T01:16:39.052Z,9.747247
2022-12-01T01:17:39.009Z,9.747211
2022-12-01T01:18:39.048Z,9.747388
2022-12-01T01:19:38.990Z,9.747406
2022-12-01T01:20:38.992Z,9.747214
2022-12-01T01:21:38.973Z,9.747327
2022-12-01T01:22:38.974Z,9.747305
2022-12-01T01:23:38.987Z,9.747250
2022-12-01T01:24:38.954Z,9.747354
2022-12-01T01:25:38.943Z,9.747338
2022-12-01T01:26:38.941Z,9.747506
2022-12-01T01:27:38.934Z,9.747484
2022-12-01T01:28:38.956Z,9.747354
2022-12-01T01:29:38.916Z,9.747447
2022-12-01T01:30:38.972Z,9.747469
2022-12-01T01:31:38.906Z,9.747445
2022-12-01T01:32:38.894Z,9.747416
2022-12-01T01:33:38.913Z,9.747416
2022-12-01T01:34:38.882Z,9.747360
2022-12-01T01:35:38.871Z,9.747206
2022-12-01T01:36:38.905Z,9.747278
2022-12-01T01:37:38.869Z,9.747357
2022-12-01T01:38:38.875Z,9.747523
2022-12-01T01:39:38.845Z,9.747380
2022-12-01T01:40:38.842Z,9.747307
2022-12-01T01:41:38.826Z,9.747366
2022-12-01T01:42:38.827Z,9.747299
2022-12-01T01:43:38.844Z,9.747339
2022-12-01T01:44:38.807Z,9.747330
2022-12-01T01:45:38.813Z,9.747268
2022-12-01T01:46:38.793Z,9.747494
2022-12-01T01:47:38.787Z,9.747360
2022-12-01T01:48:38.817Z,9.747346
2022-12-01T01:49:38.772Z,9.747383
2022-12-01T01:50:38.765Z,9.747497
2022-12-01T01:51:38.756Z,9.747307
2022-12-01T01:52:38.744Z,9.747381
2022-12-01T01:53:38.769Z,9.747333
2022-12-01T01:54:38.731Z,9.747537
2022-12-01T01:55:38.725Z,9.747609
2022-12-01T01:56:38.748Z,9.747332
2022-12-01T01:57:38.710Z,9.747463
2022-12-01T01:58:38.728Z,9.747597
2022-12-01T01:59:38.694Z,9.747433
2022-12-01T02:00:38.689Z,9.747285
2022-12-01T02:01:38.760Z,9.747259
2022-12-01T02:02:38.822Z,9.747294
2022-12-01T02:03:38.708Z,9.747210
2022-12-01T02:04:38.663Z,9.747351
2022-12-01T02:05:38.652Z,9.747377
2022-12-01T02:06:38.646Z,9.747322
2022-12-01T02:07:38.661Z,9.747298
2022-12-01T02:08:38.662Z,9.747397
2022-12-01T02:09:38.621Z,9.747360
2022-12-01T02:10:38.613Z,9.747345
2022-12-01T02:11:38.601Z,9.747392
2022-12-01T02:12:38.596Z,9.747300
2022-12-01T02:13:38.626Z,9.747461
2022-12-01T02:14:38.585Z,9.747351
2022-12-01T02:15:38.571Z,9.747367
2022-12-01T02:16:38.623Z,9.747380
2022-12-01T02:17:41.753Z,9.747316
2022-12-01T02:18:39.578Z,9.747159
2022-12-01T02:19:38.539Z,9.747192
2022-12-01T02:20:38.531Z,9.747331
2022-12-01T02:21:38.521Z,9.747183
2022-12-01T02:22:38.537Z,9.747298
2022-12-01T02:23:38.539Z,9.747229
2022-12-01T02:24:38.507Z,9.747323
2022-12-01T02:25:38.503Z,9.747198
2022-12-01T02:26:38.489Z,9.747291
2022-12-01T02:27:38.490Z,9.747157
2022-12-01T02:28:38.505Z,9.747354
2022-12-01T02:29:38.497Z,9.747522
2022-12-01T02:30:38.472Z,9.747415
2022-12-01T02:31:38.450Z,9.747388
2022-12-01T02:32:38.446Z,9.747316
2022-12-01T02:33:38.437Z,9.747358
2022-12-01T02:34:38.452Z,9.747379
2022-12-01T02:35:38.415Z,9.747398
2022-12-01T02:36:38.406Z,9.747336
2022-12-01T02:37:38.435Z,9.747460
2022-12-01T02:38:38.403Z,9.747467
2022-12-01T02:39:38.388Z,9.747381
2022-12-01T02:40:38.382Z,9.747396
2022-12-01T02:41:38.364Z,9.747352
2022-12-01T02:42:38.390Z,9.747316
2022-12-01T02:43:38.354Z,9.747376
2022-12-01T02:44:38.350Z,9.747478
2022-12-01T02:45:38.343Z,9.747338
2022-12-01T02:46:38.358Z,9.747381
2022-12-01T02:47:38.353Z,9.747395
2022-12-01T02:48:38.307Z,9.747387
2022-12-01T02:49:38.357Z,9.747370
2022-12-01T02:50:38.301Z,9.747438
2022-12-01T02:51:38.293Z,9.747482
2022-12-01T02:52:38.317Z,9.747415
2022-12-01T02:53:38.279Z,9.747396
2022-12-01T02:54:38.277Z,9.747345
2022-12-01T02:55:38.258Z,9.747375
2022-12-01T02:56:38.254Z,9.747414
2022-12-01T02:57:38.282Z,9.747375
2022-12-01T02:58:38.240Z,9.747428
2022-12-01T02:59:38.234Z,9.747401
2022-12-01T03:00:38.225Z,9.747369
2022-12-01T03:01:38.308Z,9.747400
2022-12-01T03:02:38.268Z,9.747351
2022-12-01T03:03:38.210Z,9.747348
2022-12-01T03:04:38.195Z,9.747313
2022-12-01T03:05:38.186Z,9.747322
2022-12-01T03:06:38.182Z,9.747313
2022-12-01T03:07:38.244Z,9.747324
2022-12-01T03:08:38.163Z,9.747332
2022-12-01T03:09:38.155Z,9.747369
2022-12-01T03:10:38.151Z,9.747336
2022-12-01T03:11:38.152Z,9.747295
2022-12-01T03:12:38.157Z,9.747293
2022-12-01T03:13:38.124Z,9.747282
2022-12-01T03:14:38.115Z,9.747378
2022-12-01T03:15:38.180Z,9.747389
2022-12-01T03:16:38.114Z,9.747441
2022-12-01T03:17:38.129Z,9.747398
2022-12-01T03:18:38.100Z,9.747364
2022-12-01T03:19:38.079Z,9.747380
2022-12-01T03:20:38.072Z,9.747425
2022-12-01T03:21:38.057Z,9.747427
2022-12-01T03:22:38.098Z,9.747477
2022-12-01T03:23:38.042Z,9.747474
2022-12-01T03:24:39.039Z,9.747488
2022-12-01T03:25:38.038Z,9.747401
2022-12-01T03:26:38.025Z,9.747418
2022-12-01T03:27:38.561Z,9.747401
2022-12-01T03:28:38.017Z,9.747594
2022-12-01T03:29:38.007Z,9.747532
2022-12-01T03:30:38.024Z,9.747383
2022-12-01T03:31:38.019Z,9.747400
2022-12-01T03:32:38.013Z,9.747562
2022-12-01T03:33:37.968Z,9.747606
2022-12-01T03:34:37.964Z,9.747457
2022-12-01T03:35:37.956Z,9.747653
2022-12-01T03:36:37.953Z,9.747506
2022-12-01T03:37:37.944Z,9.747681
2022-12-01T03:38:37.963Z,9.747561
2022-12-01T03:39:37.931Z,9.747548
2022-12-01T03:40:37.927Z,9.747445
2022-12-01T03:41:37.911Z,9.747379
2022-12-01T03:42:37.902Z,9.747404
2022-12-01T03:43:37.919Z,9.747585
2022-12-01T03:44:37.889Z,9.747475
2022-12-01T03:45:37.885Z,9.747334
2022-12-01T03:46:37.920Z,9.747203
2022-12-01T03:47:37.882Z,9.747373
2022-12-01T03:48:37.883Z,9.747346
2022-12-01T03:49:37.857Z,9.747388
2022-12-01T03:50:37.842Z,9.747412
2022-12-01T03:51:37.877Z,9.747233
2022-12-01T03:52:37.828Z,9.747374
2022-12-01T03:53:37.849Z,9.747216
2022-12-01T03:54:37.819Z,9.747366
2022-12-01T03:55:37.812Z,9.747267
2022-12-01T03:56:37.796Z,9.747261
2022-12-01T03:57:37.802Z,9.747219
2022-12-01T03:58:37.820Z,9.747529
2022-12-01T03:59:37.774Z,9.747691
2022-12-01T04:00:37.767Z,9.747717
2022-12-01T04:01:37.800Z,9.747672
2022-12-01T04:02:37.838Z,9.747706
2022-12-01T04:03:37.770Z,9.747710
2022-12-01T04:04:37.734Z,9.747524
2022-12-01T04:05:37.731Z,9.747286
2022-12-01T04:06:37.718Z,9.747330
2022-12-01T04:07:37.782Z,9.747443
2022-12-01T04:08:37.735Z,9.747454
2022-12-01T04:09:37.697Z,9.747547
2022-12-01T04:10:37.704Z,9.747458
2022-12-01T04:11:37.686Z,9.747366
2022-12-01T04:12:37.677Z,9.747380
2022-12-01T04:13:37.694Z,9.747385
2022-12-01T04:14:37.668Z,9.747439
2022-12-01T04:15:37.729Z,9.747355
2022-12-01T04:16:37.656Z,9.747121
2022-12-01T04:17:37.659Z,9.747272
2022-12-01T04:18:37.672Z,9.747460
2022-12-01T04:19:37.640Z,9.747261
2022-12-01T04:20:37.623Z,9.747290
2022-12-01T04:21:37.614Z,9.747366
2022-12-01T04:22:37.631Z,9.747334
2022-12-01T04:23:37.626Z,9.747456
2022-12-01T04:24:37.599Z,9.747415
2022-12-01T04:25:37.589Z,9.747428
2022-12-01T04:26:37.584Z,9.747455
2022-12-01T04:27:37.574Z,9.747464
2022-12-01T04:28:37.630Z,9.747396
2022-12-01T04:29:37.562Z,9.747446
2022-12-01T04:30:37.565Z,9.747316
2022-12-01T04:31:37.574Z,9.747396
2022-12-01T04:32:37.535Z,9.747399
2022-12-01T04:33:37.560Z,9.747321
2022-12-01T04:34:37.543Z,9.747355
2022-12-01T04:35:37.515Z,9.747289
2022-12-01T04:36:37.508Z,9.747326
2022-12-01T04:37:37.498Z,9.747357
2022-12-01T04:38:37.518Z,9.747385
2022-12-01T04:39:37.483Z,9.747321
2022-12-01T04:40:37.478Z,9.747287
2022-12-01T04:41:37.468Z,9.747375
2022-12-01T04:42:37.466Z,9.747484
2022-12-01T04:43:37.455Z,9.747424
2022-12-01T04:44:37.482Z,9.747365
2022-12-01T04:45:37.439Z,9.747350
2022-12-01T04:46:37.471Z,9.747341
2022-12-01T04:47:37.422Z,9.747422
2022-12-01T04:48:37.416Z,9.747522
2022-12-01T04:49:37.442Z,9.747425
2022-12-01T04:50:37.404Z,9.747445
2022-12-01T04:51:37.416Z,9.747491
2022-12-01T04:52:37.380Z,9.747415
2022-12-01T04:53:37.375Z,9.747478
2022-12-01T04:54:37.389Z,9.747378
2022-12-01T04:55:37.365Z,9.747375
2022-12-01T04:56:37.349Z,9.747377
2022-12-01T04:57:37.346Z,9.747472
2022-12-01T04:58:37.326Z,9.747415
2022-12-01T04:59:37.358Z,9.747320
2022-12-01T05:00:37.392Z,9.747246
2022-12-01T05:01:37.369Z,9.747371
2022-12-01T05:02:37.330Z,9.747338
2022-12-01T05:03:37.317Z,9.747388
2022-12-01T05:04:37.340Z,9.747358
2022-12-01T05:05:37.311Z,9.747298
2022-12-01T05:06:37.283Z,9.747390
2022-12-01T05:07:37.284Z,9.747346
2022-12-01T05:08:37.261Z,9.747315
2022-12-01T05:09:37.285Z,9.747318
2022-12-01T05:10:37.246Z,9.747383
2022-12-01T05:11:37.246Z,9.747366
2022-12-01T05:12:37.226Z,9.747389
2022-12-01T05:13:37.223Z,9.747405
2022-12-01T05:14:37.250Z,9.747197
2022-12-01T05:15:37.209Z,9.747317
2022-12-01T05:16:37.268Z,9.747363
2022-12-01T05:17:37.376Z,9.747286
2022-12-01T05:18:38.280Z,9.747334
2022-12-01T05:19:37.207Z,9.747414
2022-12-01T05:20:37.252Z,9.747337
2022-12-01T05:21:37.160Z,9.747416
2022-12-01T05:23:04.257Z,9.747341
2022-12-01T05:23:39.154Z,9.747370
2022-12-01T05:24:37.161Z,9.747440
2022-12-01T05:25:37.143Z,9.747406
2022-12-01T05:26:37.125Z,9.747370
2022-12-01T05:27:37.169Z,9.747430
2022-12-01T05:28:37.107Z,9.747402
2022-12-01T05:29:37.148Z,9.747440
2022-12-01T05:30:37.091Z,9.747429
2022-12-01T05:31:37.163Z,9.747345
2022-12-01T05:32:37.081Z,9.747284
2022-12-01T05:33:37.066Z,9.747282
2022-12-01T05:34:37.081Z,9.747418
2022-12-01T05:35:37.059Z,9.747355
2022-12-01T05:36:37.045Z,9.747385
2022-12-01T05:37:37.064Z,9.747396
2022-12-01T05:38:37.027Z,9.747375
2022-12-01T05:39:37.064Z,9.747303
2022-12-01T05:40:37.017Z,9.747269
2022-12-01T05:41:37.006Z,9.747247
2022-12-01T05:42:37.007Z,9.747227
2022-12-01T05:43:36.993Z,9.747288
2022-12-01T05:44:37.044Z,9.747366
2022-12-01T05:45:37.026Z,9.747409
2022-12-01T05:46:36.972Z,9.747344
2022-12-01T05:47:36.961Z,9.747311
2022-12-01T05:48:36.966Z,9.747290
2022-12-01T05:49:36.996Z,9.747349
2022-12-01T05:50:36.942Z,9.747334
2022-12-01T05:51:36.938Z,9.747269
2022-12-01T05:52:36.944Z,9.747231
2022-12-01T05:53:36.924Z,9.747343
2022-12-01T05:54:36.954Z,9.747341
2022-12-01T05:55:36.918Z,9.747468
2022-12-01T05:56:36.896Z,9.747369
2022-12-01T05:57:36.896Z,9.747241
2022-12-01T05:58:36.876Z,9.747328
2022-12-01T05:59:36.906Z,9.747441
2022-12-01T06:00:40.870Z,9.747327
2022-12-01T06:01:38.931Z,9.747156
2022-12-01T06:02:36.850Z,9.747067
2022-12-01T06:03:36.839Z,9.747123
2022-12-01T06:04:37.862Z,9.747160
2022-12-01T06:05:36.843Z,9.747193
2022-12-01T06:06:38.781Z,9.747330
2022-12-01T06:07:36.824Z,9.747578
2022-12-01T06:08:36.827Z,9.747622
2022-12-01T06:09:36.837Z,9.747509
2022-12-01T06:10:36.831Z,9.747672
2022-12-01T06:11:36.784Z,9.747466
2022-12-01T06:12:36.983Z,9.747488
2022-12-01T06:13:36.810Z,9.747497
2022-12-01T06:14:36.777Z,9.747450
2022-12-01T06:15:36.780Z,9.747324
2022-12-01T06:16:36.809Z,9.747405
2022-12-01T06:17:40.211Z,9.747196
2022-12-01T06:18:37.729Z,9.747442
2022-12-01T06:19:36.730Z,9.746778
2022-12-01T06:20:36.746Z,9.747271
2022-12-01T06:21:36.715Z,9.747400
2022-12-01T06:22:36.699Z,9.747489
2022-12-01T06:23:36.691Z,9.747592
2022-12-01T06:24:36.682Z,9.747350
2022-12-01T06:25:36.712Z,9.747124
2022-12-01T06:26:36.674Z,9.747169
2022-12-01T06:27:36.668Z,9.747406
2022-12-01T06:28:36.653Z,9.747570
2022-12-01T06:29:41.839Z,9.747589
2022-12-01T06:30:38.668Z,9.747378
2022-12-01T06:31:36.685Z,9.747465
2022-12-01T06:32:36.652Z,9.747774
2022-12-01T06:33:36.637Z,9.747607
2022-12-01T06:34:36.605Z,9.747648
2022-12-01T06:36:08.655Z,9.747773
2022-12-01T06:36:36.613Z,9.747857
2022-12-01T06:37:36.601Z,9.747842
2022-12-01T06:38:36.586Z,9.747937
2022-12-01T06:39:36.577Z,9.747880
2022-12-01T06:40:36.636Z,9.747808
2022-12-01T06:41:36.554Z,9.747868
2022-12-01T06:42:36.577Z,9.747563
2022-12-01T06:43:36.585Z,9.747629
2022-12-01T06:44:36.544Z,9.747655
2022-12-01T06:45:36.651Z,9.747517
2022-12-01T06:46:36.747Z,9.747487
2022-12-01T06:47:36.514Z,9.747430
2022-12-01T06:48:36.510Z,9.747523
2022-12-01T06:49:36.498Z,9.747467
2022-12-01T06:50:36.516Z,9.747592
2022-12-01T06:51:36.486Z,9.747570
2022-12-01T06:52:37.135Z,9.747552
2022-12-01T06:53:36.465Z,9.747431
2022-12-01T06:54:36.463Z,9.747394
2022-12-01T06:55:36.471Z,9.747319
2022-12-01T06:56:36.442Z,9.747416
2022-12-01T06:57:37.371Z,9.747570
2022-12-01T06:58:36.434Z,9.747550
2022-12-01T06:59:36.424Z,9.747622
2022-12-01T07:00:36.445Z,9.747677
2022-12-01T07:01:36.493Z,9.747397
2022-12-01T07:02:36.557Z,9.747630
2022-12-01T07:03:36.390Z,9.747441
2022-12-01T07:04:36.378Z,9.747443
2022-12-01T07:05:36.411Z,9.747546
2022-12-01T07:06:36.398Z,9.747362
2022-12-01T07:07:36.413Z,9.747563
2022-12-01T07:08:36.356Z,9.747572
2022-12-01T07:09:36.344Z,9.747644
2022-12-01T07:10:36.337Z,9.747766
2022-12-01T07:11:36.358Z,9.747635
2022-12-01T07:12:36.319Z,9.747564
2022-12-01T07:13:36.314Z,9.747706
2022-12-01T07:14:36.310Z,9.747506
2022-12-01T07:15:36.302Z,9.747469
2022-12-01T07:16:36.399Z,9.747518
2022-12-01T07:17:36.316Z,9.747477
2022-12-01T07:18:36.300Z,9.747550
2022-12-01T07:19:36.273Z,9.747549
2022-12-01T07:20:36.267Z,9.747504
2022-12-01T07:21:36.434Z,9.747418
2022-12-01T07:22:36.246Z,9.747441
2022-12-01T07:23:36.243Z,9.747523
2022-12-01T07:24:36.291Z,9.747490
2022-12-01T07:25:36.238Z,9.747567
2022-12-01T07:26:36.932Z,9.747677
2022-12-01T07:27:36.254Z,9.747707
2022-12-01T07:28:36.205Z,9.747554
2022-12-01T07:29:36.203Z,9.747361
2022-12-01T07:30:36.231Z,9.747646
2022-12-01T07:31:36.233Z,9.747356
2022-12-01T07:32:36.212Z,9.747440
2022-12-01T07:33:36.212Z,9.747494
2022-12-01T07:34:36.185Z,9.747463
2022-12-01T07:35:36.148Z,9.747380
2022-12-01T07:36:36.202Z,9.747313
2022-12-01T07:37:36.134Z,9.747479
2022-12-01T07:38:36.125Z,9.747525
2022-12-01T07:39:36.124Z,9.747563
2022-12-01T07:40:37.110Z,9.747522
2022-12-01T07:41:36.145Z,9.747494
2022-12-01T07:42:36.094Z,9.747503
2022-12-01T07:43:36.087Z,9.747526
2022-12-01T07:44:36.086Z,9.747645
2022-12-01T07:45:36.083Z,9.747579
2022-12-01T07:46:36.145Z,9.747514
2022-12-01T07:47:36.065Z,9.747509
2022-12-01T07:48:36.059Z,9.747544
2022-12-01T07:49:36.056Z,9.747530
2022-12-01T07:50:36.032Z,9.747519
2022-12-01T07:51:37.056Z,9.747551
2022-12-01T07:52:36.171Z,9.747523
2022-12-01T07:53:36.057Z,9.747512
2022-12-01T07:54:36.012Z,9.747486
2022-12-01T07:55:36.000Z,9.747568
2022-12-01T07:56:36.026Z,9.747446
2022-12-01T07:57:36.004Z,9.747431
2022-12-01T07:58:35.987Z,9.747493
2022-12-01T07:59:35.966Z,9.747448
2022-12-01T08:00:35.959Z,9.747381
2022-12-01T08:01:39.173Z,9.747450
2022-12-01T08:02:36.976Z,9.747541
2022-12-01T08:03:35.947Z,9.747599
2022-12-01T08:04:35.931Z,9.747618
2022-12-01T08:05:35.929Z,9.747470
2022-12-01T08:06:35.951Z,9.747557
2022-12-01T08:07:35.976Z,9.747477
2022-12-01T08:08:35.908Z,9.747419
2022-12-01T08:09:35.893Z,9.747391
2022-12-01T08:10:35.882Z,9.747386
2022-12-01T08:11:35.893Z,9.747432
2022-12-01T08:12:35.894Z,9.747113
2022-12-01T08:13:35.858Z,9.747152
2022-12-01T08:14:35.866Z,9.747225
2022-12-01T08:15:35.905Z,9.747345
2022-12-01T08:16:35.848Z,9.747533
2022-12-01T08:17:35.862Z,9.747578
2022-12-01T08:18:35.823Z,9.747498
2022-12-01T08:19:35.813Z,9.747357
2022-12-01T08:20:35.820Z,9.747435
2022-12-01T08:21:35.805Z,9.747411
2022-12-01T08:22:35.832Z,9.747447
2022-12-01T08:23:35.788Z,9.747582
2022-12-01T08:24:35.792Z,9.747568
2022-12-01T08:25:35.771Z,9.747569
2022-12-01T08:26:35.813Z,9.747505
2022-12-01T08:27:35.778Z,9.747517
2022-12-01T08:28:36.259Z,9.747554
2022-12-01T08:29:35.759Z,9.747489
2022-12-01T08:30:35.737Z,9.747439
2022-12-01T08:31:35.889Z,9.747434
2022-12-01T08:32:35.746Z,9.747356
2022-12-01T08:33:35.715Z,9.747483
2022-12-01T08:34:35.723Z,9.747398
2022-12-01T08:35:35.705Z,9.747457
2022-12-01T08:36:35.687Z,9.747521
2022-12-01T08:37:35.730Z,9.747380
2022-12-01T08:38:35.674Z,9.747368
2022-12-01T08:39:35.671Z,9.747280
2022-12-01T08:40:35.667Z,9.747198
2022-12-01T08:41:35.660Z,9.747200
2022-12-01T08:42:35.669Z,9.747267
2022-12-01T08:43:56.692Z,9.747451
2022-12-01T08:44:37.672Z,9.747445
2022-12-01T08:45:35.621Z,9.747483
2022-12-01T08:46:35.663Z,9.747453
2022-12-01T08:47:35.636Z,9.747375
2022-12-01T08:48:35.600Z,9.747345
2022-12-01T08:49:35.591Z,9.747388
2022-12-01T08:50:35.585Z,9.747389
2022-12-01T08:51:35.584Z,9.747440
2022-12-01T08:52:35.597Z,9.747385
2022-12-01T08:53:35.569Z,9.747314
2022-12-01T08:54:35.557Z,9.747637
2022-12-01T08:55:35.546Z,9.747484
2022-12-01T08:56:35.558Z,9.747472
2022-12-01T08:57:35.567Z,9.747440
2022-12-01T08:58:35.531Z,9.747375
2022-12-01T08:59:35.520Z,9.747251
2022-12-01T09:00:35.512Z,9.747315
2022-12-01T09:01:36.534Z,9.747359
2022-12-01T09:02:35.621Z,9.747322
2022-12-01T09:03:35.524Z,9.747268
2022-12-01T09:04:36.481Z,9.747249
2022-12-01T09:05:35.471Z,9.747272
2022-12-01T09:06:35.459Z,9.747248
2022-12-01T09:07:35.538Z,9.747166
2022-12-01T09:08:35.458Z,9.747099
2022-12-01T09:09:35.445Z,9.747380
2022-12-01T09:10:35.478Z,9.747235
2022-12-01T09:11:35.429Z,9.747016
2022-12-01T09:12:35.450Z,9.747157
2022-12-01T09:13:35.431Z,9.747196
2022-12-01T09:14:35.402Z,9.747194
2022-12-01T09:15:35.403Z,9.747143
2022-12-01T09:16:35.465Z,9.747136
2022-12-01T09:17:35.412Z,9.747265
2022-12-01T09:18:35.373Z,9.747289
2022-12-01T09:19:35.456Z,9.747205
2022-12-01T09:20:35.359Z,9.747200
2022-12-01T09:21:35.353Z,9.747190
2022-12-01T09:22:35.393Z,9.747268
2022-12-01T09:23:35.350Z,9.747355
2022-12-01T09:24:35.339Z,9.747189
2022-12-01T09:25:35.360Z,9.747283
2022-12-01T09:26:35.354Z,9.747312
2022-12-01T09:27:35.410Z,9.747264
2022-12-01T09:28:35.309Z,9.747305
2022-12-01T09:29:35.294Z,9.747349
2022-12-01T09:30:35.290Z,9.747419
2022-12-01T09:31:35.316Z,9.747291
2022-12-01T09:32:35.529Z,9.747378
2022-12-01T09:33:35.279Z,9.747416
2022-12-01T09:34:35.266Z,9.747450
2022-12-01T09:35:35.247Z,9.747326
2022-12-01T09:36:35.275Z,9.747405
2022-12-01T09:37:35.535Z,9.747326
2022-12-01T09:38:35.234Z,9.747489
2022-12-01T09:39:35.220Z,9.747415
2022-12-01T09:40:35.219Z,9.747381
2022-12-01T09:41:35.273Z,9.747407
2022-12-01T09:42:35.623Z,9.747475
2022-12-01T09:43:36.207Z,9.747437
2022-12-01T09:44:35.195Z,9.747308
2022-12-01T09:45:35.889Z,9.747426
2022-12-01T09:46:35.503Z,9.747472
2022-12-01T09:47:35.267Z,9.747475
2022-12-01T09:48:35.259Z,9.747470
2022-12-01T09:49:35.161Z,9.747426
2022-12-01T09:50:35.141Z,9.747390
2022-12-01T09:51:35.164Z,9.747420
2022-12-01T09:52:35.154Z,9.747480
2022-12-01T09:53:35.113Z,9.747335
2022-12-01T09:54:35.112Z,9.747457
2022-12-01T09:55:35.242Z,9.747483
2022-12-01T09:56:35.091Z,9.747479
2022-12-01T09:57:35.119Z,9.747338
2022-12-01T09:58:35.086Z,9.747409
2022-12-01T09:59:35.119Z,9.747679
2022-12-01T10:00:35.120Z,9.747562
2022-12-01T10:01:35.092Z,9.747499
2022-12-01T10:02:35.152Z,9.747502
2022-12-01T10:03:35.055Z,9.747545
2022-12-01T10:04:35.030Z,9.747440
2022-12-01T10:05:35.065Z,9.747443
2022-12-01T10:06:35.116Z,9.747500
2022-12-01T10:07:35.142Z,9.747559
2022-12-01T10:08:35.011Z,9.747553
2022-12-01T10:09:35.038Z,9.747624
2022-12-01T10:10:34.998Z,9.747559
2022-12-01T10:11:34.990Z,9.747569
2022-12-01T10:12:34.998Z,9.747549
2022-12-01T10:13:34.965Z,9.747552
2022-12-01T10:14:34.957Z,9.747512
2022-12-01T10:15:35.003Z,9.747567
2022-12-01T10:16:35.140Z,9.747591
2022-12-01T10:17:35.112Z,9.747577
2022-12-01T10:18:34.935Z,9.747519
2022-12-01T10:19:34.931Z,9.747408
2022-12-01T10:20:35.014Z,9.747414
2022-12-01T10:21:34.939Z,9.747487
2022-12-01T10:22:34.932Z,9.747397
2022-12-01T10:23:34.927Z,9.747615
2022-12-01T10:24:35.015Z,9.747470
2022-12-01T10:25:34.912Z,9.747529
2022-12-01T10:26:34.884Z,9.747495
2022-12-01T10:27:34.919Z,9.747518
2022-12-01T10:28:34.900Z,9.747378
2022-12-01T10:29:34.846Z,9.747355
2022-12-01T10:30:34.842Z,9.747493
2022-12-01T10:31:34.877Z,9.747426
2022-12-01T10:32:34.830Z,9.747444
2022-12-01T10:33:34.855Z,9.747300
2022-12-01T10:34:34.808Z,9.747516
2022-12-01T10:35:34.822Z,9.747546
2022-12-01T10:36:34.812Z,9.747491
2022-12-01T10:37:34.862Z,9.747370
2022-12-01T10:38:34.811Z,9.747453
2022-12-01T10:39:34.773Z,9.747405
2022-12-01T10:40:34.771Z,9.747430
2022-12-01T10:41:34.808Z,9.747460
2022-12-01T10:42:34.749Z,9.747354
2022-12-01T10:43:34.770Z,9.747453
2022-12-01T10:44:34.750Z,9.747515
2022-12-01T10:45:35.780Z,9.747589
2022-12-01T10:46:34.784Z,9.747759
2022-12-01T10:47:34.717Z,9.747767
2022-12-01T10:48:34.752Z,9.747507
2022-12-01T10:49:34.711Z,9.747400
2022-12-01T10:50:34.695Z,9.747487
2022-12-01T10:51:34.687Z,9.747495
2022-12-01T10:52:34.686Z,9.747544
2022-12-01T10:53:34.705Z,9.747398
2022-12-01T10:54:34.665Z,9.747335
2022-12-01T10:55:34.656Z,9.747424
2022-12-01T10:56:34.654Z,9.747446
2022-12-01T10:57:34.647Z,9.747499
2022-12-01T10:58:34.655Z,9.747367
2022-12-01T10:59:34.625Z,9.747448
2022-12-01T11:01:36.699Z,9.747297
2022-12-01T11:02:35.033Z,9.747316
2022-12-01T11:03:34.768Z,9.747318
2022-12-01T11:04:34.595Z,9.747541
2022-12-01T11:05:34.590Z,9.747489
2022-12-01T11:06:34.573Z,9.747279
2022-12-01T11:07:34.654Z,9.747196
2022-12-01T11:08:34.583Z,9.747268
2022-12-01T11:09:34.553Z,9.747319
2022-12-01T11:10:34.548Z,9.747498
2022-12-01T11:11:34.541Z,9.747433
2022-12-01T11:12:34.527Z,9.747463
2022-12-01T11:13:34.555Z,9.747349
2022-12-01T11:14:34.519Z,9.747468
2022-12-01T11:15:34.515Z,9.747568
2022-12-01T11:16:34.553Z,9.747517
2022-12-01T11:17:34.488Z,9.747392
2022-12-01T11:18:34.608Z,9.747367
2022-12-01T11:19:34.599Z,9.747398
2022-12-01T11:20:34.533Z,9.747490
2022-12-01T11:21:34.462Z,9.747527
2022-12-01T11:22:34.455Z,9.747465
2022-12-01T11:23:34.447Z,9.747506
2022-12-01T11:24:34.475Z,9.747490
2022-12-01T11:25:34.438Z,9.747465
2022-12-01T11:26:34.428Z,9.747472
2022-12-01T11:27:34.420Z,9.747408
2022-12-01T11:28:34.410Z,9.747459
2022-12-01T11:29:34.428Z,9.747530
2022-12-01T11:30:34.396Z,9.747493
2022-12-01T11:31:34.394Z,9.747389
2022-12-01T11:32:34.421Z,9.747430
2022-12-01T11:33:34.378Z,9.747483
2022-12-01T11:34:34.432Z,9.747438
2022-12-01T11:35:34.357Z,9.747527
2022-12-01T11:36:34.359Z,9.747512
2022-12-01T11:37:34.336Z,9.747441
2022-12-01T11:38:34.334Z,9.747561
2022-12-01T11:39:34.356Z,9.747461
2022-12-01T11:40:34.328Z,9.747444
2022-12-01T11:41:34.327Z,9.747335
2022-12-01T11:42:34.326Z,9.747393
2022-12-01T11:43:34.307Z,9.747251
2022-12-01T11:45:36.308Z,9.747442
2022-12-01T11:46:34.277Z,9.746977